Aviation Digital Data Service (ADDS)

Output produced by METARs form (0759 UTC 20 December 2014)
found at http://www.aviationweather.gov/adds/metars/
 
KDOV 200658Z AUTO 28005KT 10SM CLR M01/M05 A3019 RMK AO2 SLP227 T10151052
TAF KDOV 2000/2106 VRB06KT 9999 FEW030 QNH3014INS TX03/2017Z TNM03/2011Z